createdAt,value
2023-07-24T00:01:07.860Z,2.58
2023-07-24T00:03:34.511Z,2.30
2023-07-24T00:06:01.198Z,1.95
2023-07-24T00:08:27.790Z,1.73
2023-07-24T00:10:54.974Z,1.70
2023-07-24T00:13:21.488Z,1.77
2023-07-24T00:15:48.090Z,1.73
2023-07-24T00:18:14.642Z,1.63
2023-07-24T00:20:41.265Z,1.95
2023-07-24T00:23:07.925Z,2.05
2023-07-24T00:25:34.482Z,1.80
2023-07-24T00:28:01.008Z,1.60
2023-07-24T00:30:27.553Z,1.70
2023-07-24T00:32:54.200Z,1.85
2023-07-24T00:35:20.953Z,1.80
2023-07-24T00:37:47.523Z,1.60
2023-07-24T00:40:14.093Z,1.67
2023-07-24T00:42:40.690Z,1.80
2023-07-24T00:45:07.779Z,1.50
2023-07-24T00:47:34.486Z,1.38
2023-07-24T00:50:01.083Z,2.15
2023-07-24T00:52:27.628Z,1.77
2023-07-24T00:54:54.678Z,1.70
2023-07-24T00:57:21.405Z,2.33
2023-07-24T00:59:48.034Z,1.77
2023-07-24T01:02:14.629Z,1.92
2023-07-24T01:04:41.403Z,2.00
2023-07-24T01:07:07.934Z,1.60
2023-07-24T01:09:34.519Z,1.70
2023-07-24T01:12:36.338Z,1.58
2023-07-24T01:15:16.664Z,1.70
2023-07-24T01:17:49.165Z,1.48
2023-07-24T01:20:18.633Z,1.70
2023-07-24T01:23:05.603Z,1.70
2023-07-24T01:25:37.006Z,1.83
2023-07-24T01:28:10.652Z,1.63
2023-07-24T01:30:37.307Z,1.60
2023-07-24T01:33:04.101Z,1.67
2023-07-24T01:35:32.322Z,1.60
2023-07-24T01:38:00.878Z,1.60
2023-07-24T01:40:27.419Z,1.77
2023-07-24T01:42:54.127Z,1.98
2023-07-24T01:45:20.674Z,2.20
2023-07-24T01:47:47.373Z,2.03
2023-07-24T01:50:14.023Z,2.00
2023-07-24T01:52:40.541Z,1.88
2023-07-24T01:55:07.454Z,1.92
2023-07-24T01:57:33.955Z,1.80
2023-07-24T02:00:00.471Z,1.73
2023-07-24T02:02:27.015Z,2.17
2023-07-24T02:04:53.594Z,3.08
2023-07-24T02:07:20.178Z,2.78
2023-07-24T02:09:46.741Z,2.33
2023-07-24T02:12:13.244Z,2.22
2023-07-24T02:14:39.799Z,2.47
2023-07-24T02:17:06.428Z,3.00
2023-07-24T02:19:32.977Z,2.67
2023-07-24T02:21:59.547Z,2.90
2023-07-24T02:24:26.093Z,3.33
2023-07-24T02:26:52.703Z,3.38
2023-07-24T02:29:20.029Z,3.70
2023-07-24T02:31:46.546Z,3.33
2023-07-24T02:34:13.089Z,3.90
2023-07-24T02:36:40.150Z,3.55
2023-07-24T02:39:06.674Z,4.32
2023-07-24T02:41:33.264Z,4.03
2023-07-24T02:43:59.772Z,3.85
2023-07-24T02:46:26.401Z,4.20
2023-07-24T02:48:53.655Z,3.92
2023-07-24T02:51:20.262Z,3.58
2023-07-24T02:53:46.839Z,4.32
2023-07-24T02:56:13.361Z,4.22
2023-07-24T02:58:39.954Z,4.20
2023-07-24T03:01:08.274Z,4.22
2023-07-24T03:03:35.936Z,4.10
2023-07-24T03:06:02.886Z,3.78
2023-07-24T03:08:29.418Z,4.05
2023-07-24T03:10:55.909Z,3.90
2023-07-24T03:13:22.438Z,3.83
2023-07-24T03:15:57.179Z,4.07
2023-07-24T03:18:24.103Z,4.32
2023-07-24T03:20:50.622Z,4.00
2023-07-24T03:23:17.270Z,3.85
2023-07-24T03:25:43.880Z,4.03
2023-07-24T03:28:10.932Z,4.15
2023-07-24T03:30:37.439Z,4.10
2023-07-24T03:33:04.225Z,3.95
2023-07-24T03:35:30.791Z,3.65
2023-07-24T03:37:57.299Z,4.05
2023-07-24T03:40:23.880Z,4.40
2023-07-24T03:42:50.461Z,4.13
2023-07-24T03:45:17.104Z,3.92
2023-07-24T03:47:44.273Z,4.18
2023-07-24T03:50:10.941Z,4.65
2023-07-24T03:52:37.410Z,4.43
2023-07-24T03:55:04.793Z,4.18
2023-07-24T03:57:31.379Z,4.65
2023-07-24T03:59:57.968Z,4.38
2023-07-24T04:02:24.921Z,4.60
2023-07-24T04:04:51.556Z,4.63
2023-07-24T04:07:18.108Z,4.40
2023-07-24T04:09:44.609Z,3.38
2023-07-24T04:12:11.126Z,4.35
2023-07-24T04:14:37.617Z,4.10
2023-07-24T04:17:04.440Z,4.13
2023-07-24T04:19:31.446Z,4.88
2023-07-24T04:21:57.930Z,4.03
2023-07-24T04:24:24.473Z,4.03
2023-07-24T04:26:50.957Z,4.35
2023-07-24T04:29:17.519Z,3.80
2023-07-24T04:31:44.164Z,4.20
2023-07-24T04:34:10.775Z,4.32
2023-07-24T04:36:37.350Z,4.50
2023-07-24T04:39:03.985Z,3.95
2023-07-24T04:41:30.516Z,4.53
2023-07-24T04:43:57.013Z,4.35
2023-07-24T04:46:23.632Z,4.47
2023-07-24T04:48:50.184Z,4.50
2023-07-24T04:51:16.698Z,4.28
2023-07-24T04:53:43.202Z,4.25
2023-07-24T04:56:09.717Z,4.38
2023-07-24T04:58:36.217Z,4.22
2023-07-24T05:01:06.152Z,4.50
2023-07-24T05:03:33.566Z,4.60
2023-07-24T05:06:00.171Z,4.50
2023-07-24T05:08:26.733Z,4.65
2023-07-24T05:10:59.963Z,4.43
2023-07-24T05:13:27.498Z,4.20
2023-07-24T05:15:54.064Z,4.45
2023-07-24T05:18:20.861Z,4.80
2023-07-24T05:20:48.563Z,4.47
2023-07-24T05:23:15.785Z,4.00
2023-07-24T05:25:42.442Z,4.63
2023-07-24T05:28:09.130Z,4.38
2023-07-24T05:30:35.807Z,4.25
2023-07-24T05:33:02.371Z,4.32
2023-07-24T05:35:28.949Z,4.20
2023-07-24T05:37:55.450Z,4.43
2023-07-24T05:40:21.946Z,4.15
2023-07-24T05:42:48.975Z,4.20
2023-07-24T05:45:18.696Z,3.97
2023-07-24T05:47:45.273Z,3.97
2023-07-24T05:50:14.415Z,3.72
2023-07-24T05:52:41.607Z,3.53
2023-07-24T05:55:08.823Z,3.88
2023-07-24T05:57:35.353Z,3.58
2023-07-24T06:00:02.129Z,3.42
2023-07-24T06:02:28.612Z,3.92
2023-07-24T06:04:55.159Z,3.70
2023-07-24T06:07:21.719Z,3.70
2023-07-24T06:09:48.243Z,3.30
2023-07-24T06:12:14.962Z,3.00
2023-07-24T06:14:41.514Z,3.60
2023-07-24T06:17:08.267Z,3.60
2023-07-24T06:19:35.453Z,3.13
2023-07-24T06:22:02.056Z,3.20
2023-07-24T06:24:28.703Z,3.40
2023-07-24T06:26:55.402Z,2.95
2023-07-24T06:29:23.600Z,3.33
2023-07-24T06:31:50.946Z,3.40
2023-07-24T06:34:17.612Z,3.00
2023-07-24T06:36:44.249Z,2.70
2023-07-24T06:39:10.823Z,3.50
2023-07-24T06:41:37.365Z,2.70
2023-07-24T06:44:04.081Z,2.88
2023-07-24T06:46:31.056Z,3.08
2023-07-24T06:48:57.958Z,3.00
2023-07-24T06:51:24.483Z,2.83
2023-07-24T06:53:51.060Z,2.78
2023-07-24T06:56:17.610Z,2.95
2023-07-24T06:58:44.178Z,2.95
2023-07-24T07:01:10.723Z,2.67
2023-07-24T07:03:37.395Z,2.63
2023-07-24T07:06:04.481Z,2.90
2023-07-24T07:08:31.423Z,2.50
2023-07-24T07:11:01.708Z,3.10
2023-07-24T07:13:28.606Z,2.88
2023-07-24T07:15:55.168Z,2.90
2023-07-24T07:18:21.824Z,2.78
2023-07-24T07:20:54.197Z,2.90
2023-07-24T07:23:21.721Z,2.72
2023-07-24T07:25:48.411Z,2.50
2023-07-24T07:28:15.922Z,2.92
2023-07-24T07:30:44.960Z,2.60
2023-07-24T07:33:12.577Z,2.58
2023-07-24T07:35:39.109Z,2.58
2023-07-24T07:38:05.704Z,2.45
2023-07-24T07:40:32.211Z,2.65
2023-07-24T07:42:58.772Z,2.60
2023-07-24T07:45:25.589Z,2.72
2023-07-24T07:47:54.390Z,3.45
2023-07-24T07:50:21.273Z,2.80
2023-07-24T07:52:51.046Z,2.90
2023-07-24T07:55:17.778Z,2.80
2023-07-24T07:57:44.331Z,2.83
2023-07-24T08:00:11.528Z,2.75
2023-07-24T08:02:41.291Z,2.60
2023-07-24T08:05:20.880Z,3.08
2023-07-24T08:07:48.325Z,2.55
2023-07-24T08:10:16.845Z,2.58
2023-07-24T08:12:44.445Z,2.58
2023-07-24T08:15:11.814Z,2.72
2023-07-24T08:17:38.518Z,2.70
2023-07-24T08:20:05.733Z,2.47
2023-07-24T08:22:32.239Z,2.45
2023-07-24T08:24:58.822Z,2.92
2023-07-24T08:27:25.376Z,2.72
2023-07-24T08:29:53.723Z,2.80
2023-07-24T08:32:20.910Z,2.83
2023-07-24T08:34:47.440Z,3.22
2023-07-24T08:37:14.051Z,3.13
2023-07-24T08:39:40.821Z,3.20
2023-07-24T08:42:14.629Z,3.10
2023-07-24T08:44:41.312Z,2.97
2023-07-24T08:47:11.444Z,3.40
2023-07-24T08:49:40.083Z,3.38
2023-07-24T08:52:07.432Z,3.22
2023-07-24T08:54:36.623Z,2.80
2023-07-24T08:57:03.593Z,3.17
2023-07-24T08:59:30.921Z,3.55
2023-07-24T09:01:57.446Z,3.00
2023-07-24T09:04:25.728Z,3.30
2023-07-24T09:06:52.698Z,3.30
2023-07-24T09:09:19.258Z,3.03
2023-07-24T09:11:48.811Z,3.40
2023-07-24T09:14:28.173Z,3.88
2023-07-24T09:17:10.805Z,2.95
2023-07-24T09:19:38.371Z,2.90
2023-07-24T09:22:16.200Z,2.42
2023-07-24T09:27:27.748Z,2.63
2023-07-24T09:29:55.588Z,2.63
2023-07-24T09:32:23.422Z,2.80
2023-07-24T09:34:55.381Z,2.90
2023-07-24T09:37:28.878Z,2.42
2023-07-24T09:39:55.479Z,2.55
2023-07-24T09:42:44.784Z,2.45
2023-07-24T09:45:23.388Z,2.08
2023-07-24T09:47:56.738Z,2.17
2023-07-24T09:50:27.245Z,2.60
2023-07-24T09:52:55.881Z,2.40
2023-07-24T09:55:36.020Z,2.25
2023-07-24T09:58:02.702Z,2.13
2023-07-24T10:00:30.216Z,2.40
2023-07-24T10:02:57.209Z,2.00
2023-07-24T10:05:24.235Z,2.60
2023-07-24T10:07:51.931Z,2.42
2023-07-24T10:10:18.889Z,2.00
2023-07-24T10:12:45.958Z,1.88
2023-07-24T10:15:12.797Z,2.45
2023-07-24T10:17:41.716Z,2.03
2023-07-24T10:20:13.249Z,2.00
2023-07-24T10:22:44.073Z,2.22
2023-07-24T10:25:11.945Z,2.17
2023-07-24T10:27:48.378Z,1.75
2023-07-24T10:30:33.789Z,1.88
2023-07-24T10:33:12.379Z,1.75
2023-07-24T10:35:39.977Z,1.77
2023-07-24T10:38:06.575Z,2.00
2023-07-24T10:40:34.638Z,1.77
2023-07-24T10:43:09.259Z,1.98
2023-07-24T10:46:02.295Z,1.60
2023-07-24T10:48:28.948Z,1.95
2023-07-24T10:50:55.646Z,1.80
2023-07-24T10:53:24.305Z,2.20
2023-07-24T10:55:52.579Z,2.00
2023-07-24T10:58:19.380Z,2.10
2023-07-24T11:00:48.417Z,2.13
2023-07-24T11:03:16.170Z,2.35
2023-07-24T11:05:47.578Z,2.25
2023-07-24T11:08:16.489Z,2.30
2023-07-24T11:10:54.318Z,1.98
2023-07-24T11:13:23.672Z,2.00
2023-07-24T11:15:51.126Z,2.10
2023-07-24T11:18:17.896Z,2.10
2023-07-24T11:20:47.349Z,2.10
2023-07-24T11:23:14.264Z,2.40
2023-07-24T11:25:41.560Z,2.10
2023-07-24T11:28:09.910Z,2.45
2023-07-24T11:30:36.917Z,2.67
2023-07-24T11:33:06.428Z,2.25
2023-07-24T11:35:33.721Z,2.42
2023-07-24T11:38:00.640Z,1.55
2023-07-24T11:40:39.159Z,2.15
2023-07-24T11:43:06.139Z,1.40
2023-07-24T11:45:42.078Z,1.02
2023-07-24T11:48:12.833Z,1.15
2023-07-24T11:50:47.652Z,1.13
2023-07-24T11:53:28.742Z,1.50
2023-07-24T11:55:57.844Z,1.40
2023-07-24T11:58:27.428Z,1.30
2023-07-24T12:00:54.393Z,1.90
2023-07-24T12:03:22.969Z,1.42
2023-07-24T12:05:50.915Z,1.58
2023-07-24T12:08:21.488Z,1.80
2023-07-24T12:10:49.728Z,1.70
2023-07-24T12:13:18.230Z,1.60
2023-07-24T12:15:45.915Z,1.88
2023-07-24T12:18:12.460Z,1.92
2023-07-24T12:20:39.464Z,1.55
2023-07-24T12:23:06.046Z,1.63
2023-07-24T12:25:33.080Z,1.50
2023-07-24T12:28:00.039Z,1.40
2023-07-24T12:30:26.723Z,1.30
2023-07-24T12:32:53.287Z,1.13
2023-07-24T12:35:19.950Z,1.40
2023-07-24T12:37:46.979Z,1.20
2023-07-24T12:40:14.241Z,1.50
2023-07-24T12:42:40.837Z,1.23
2023-07-24T12:45:07.868Z,1.30
2023-07-24T12:47:34.667Z,1.67
2023-07-24T12:50:01.796Z,1.25
2023-07-24T12:52:30.516Z,1.40
2023-07-24T12:55:02.283Z,1.20
2023-07-24T12:57:29.890Z,1.20
2023-07-24T12:59:56.528Z,1.20
2023-07-24T13:02:23.150Z,1.10
2023-07-24T13:04:49.786Z,7.82
2023-07-24T13:07:16.506Z,1.38
2023-07-24T13:09:43.174Z,1.50
2023-07-24T13:12:10.268Z,1.08
2023-07-24T13:14:38.490Z,1.05
2023-07-24T13:17:07.026Z,1.08
2023-07-24T13:19:33.732Z,1.20
2023-07-24T13:22:00.376Z,1.02
2023-07-24T13:24:27.162Z,1.00
2023-07-24T13:26:53.739Z,1.67
2023-07-24T13:29:20.615Z,1.52
2023-07-24T13:31:47.948Z,0.98
2023-07-24T13:34:14.493Z,1.20
2023-07-24T13:36:41.081Z,0.98
2023-07-24T13:39:07.685Z,1.30
2023-07-24T13:41:34.488Z,1.38
2023-07-24T13:44:01.484Z,1.20
2023-07-24T13:46:28.141Z,1.20
2023-07-24T13:48:54.727Z,1.13
2023-07-24T13:51:21.281Z,1.00
2023-07-24T13:53:49.584Z,1.00
2023-07-24T13:56:16.297Z,1.05
2023-07-24T13:58:42.867Z,1.35
2023-07-24T14:01:09.652Z,1.10
2023-07-24T14:03:36.377Z,1.30
2023-07-24T14:06:03.621Z,1.10
2023-07-24T14:08:30.153Z,1.20
2023-07-24T14:10:56.971Z,1.25
2023-07-24T14:13:23.615Z,1.30
2023-07-24T14:15:50.332Z,1.30
2023-07-24T14:18:17.029Z,1.20
2023-07-24T14:20:43.668Z,1.10
2023-07-24T14:25:54.296Z,1.23
2023-07-24T14:28:20.898Z,1.25
2023-07-24T14:30:48.241Z,1.40
2023-07-24T14:33:14.892Z,2.60
2023-07-24T14:35:41.414Z,1.70
2023-07-24T14:38:07.948Z,2.05
2023-07-24T14:40:34.571Z,1.70
2023-07-24T14:43:01.136Z,1.75
2023-07-24T14:45:28.063Z,2.00
2023-07-24T14:47:54.730Z,1.85
2023-07-24T14:50:21.322Z,2.30
2023-07-24T14:52:47.935Z,2.10
2023-07-24T14:55:15.665Z,1.85
2023-07-24T14:57:42.277Z,2.00
2023-07-24T15:00:09.715Z,2.10
2023-07-24T15:02:36.427Z,2.28
2023-07-24T15:05:03.256Z,2.15
2023-07-24T15:07:30.474Z,1.88
2023-07-24T15:09:57.463Z,1.70
2023-07-24T15:12:24.174Z,1.83
2023-07-24T15:14:50.754Z,2.28
2023-07-24T15:17:19.372Z,1.77
2023-07-24T15:19:46.198Z,2.13
2023-07-24T15:22:12.791Z,5.88
2023-07-24T15:24:41.093Z,2.08
2023-07-24T15:27:09.203Z,2.08
2023-07-24T15:29:39.025Z,1.92
2023-07-24T15:32:06.500Z,1.80
2023-07-24T15:34:33.214Z,1.90
2023-07-24T15:37:00.130Z,1.65
2023-07-24T15:39:26.732Z,1.92
2023-07-24T15:41:53.332Z,2.10
2023-07-24T15:44:19.887Z,2.22
2023-07-24T15:46:48.034Z,2.30
2023-07-24T15:49:15.456Z,2.40
2023-07-24T15:51:42.001Z,2.60
2023-07-24T15:54:11.266Z,2.70
2023-07-24T15:56:39.999Z,2.58
2023-07-24T15:59:06.778Z,2.88
2023-07-24T16:01:33.837Z,3.05
2023-07-24T16:04:00.819Z,2.85
2023-07-24T16:06:27.492Z,2.83
2023-07-24T16:08:54.131Z,2.70
2023-07-24T16:11:20.655Z,2.83
2023-07-24T16:13:47.379Z,2.70
2023-07-24T16:16:15.685Z,2.65
2023-07-24T16:18:42.798Z,2.85
2023-07-24T16:21:09.361Z,2.42
2023-07-24T16:23:36.249Z,3.30
2023-07-24T16:26:05.893Z,2.92
2023-07-24T16:28:32.504Z,3.00
2023-07-24T16:30:59.871Z,3.00
2023-07-24T16:33:26.607Z,3.67
2023-07-24T16:35:53.403Z,3.70
2023-07-24T16:38:20.126Z,3.50
2023-07-24T16:40:46.786Z,3.40
2023-07-24T16:43:13.339Z,3.08
2023-07-24T16:45:39.932Z,3.05
2023-07-24T16:48:06.990Z,3.20
2023-07-24T16:50:36.256Z,3.03
2023-07-24T16:53:03.859Z,3.60
2023-07-24T16:55:30.750Z,3.25
2023-07-24T16:57:57.731Z,4.78
2023-07-24T17:00:24.365Z,4.18
2023-07-24T17:02:51.143Z,2.80
2023-07-24T17:05:17.882Z,3.00
2023-07-24T17:07:44.470Z,2.70
2023-07-24T17:10:11.082Z,5.03
2023-07-24T17:12:38.103Z,4.75
2023-07-24T17:15:05.018Z,2.58
2023-07-24T17:17:31.643Z,1.65
2023-07-24T17:19:58.328Z,1.60
2023-07-24T17:22:24.940Z,1.58
2023-07-24T17:24:52.157Z,1.65
2023-07-24T17:27:19.015Z,1.90
2023-07-24T17:29:46.670Z,2.10
2023-07-24T17:32:14.276Z,2.33
2023-07-24T17:34:42.335Z,1.95
2023-07-24T17:37:14.221Z,1.83
2023-07-24T17:39:44.913Z,1.77
2023-07-24T17:42:11.496Z,1.65
2023-07-24T17:44:38.332Z,1.58
2023-07-24T17:47:04.884Z,1.90
2023-07-24T17:49:31.431Z,1.42
2023-07-24T17:51:57.964Z,1.73
2023-07-24T17:54:24.871Z,1.85
2023-07-24T17:56:51.577Z,1.83
2023-07-24T17:59:18.239Z,2.13
2023-07-24T18:01:45.251Z,1.95
2023-07-24T18:04:11.782Z,1.80
2023-07-24T18:06:38.334Z,1.83
2023-07-24T18:09:05.005Z,1.90
2023-07-24T18:11:31.792Z,2.20
2023-07-24T18:13:58.525Z,2.05
2023-07-24T18:16:25.127Z,2.45
2023-07-24T18:18:52.057Z,2.20
2023-07-24T18:21:24.437Z,2.17
2023-07-24T18:23:52.549Z,2.30
2023-07-24T18:26:19.119Z,2.40
2023-07-24T18:28:45.737Z,2.70
2023-07-24T18:31:12.323Z,4.50
2023-07-24T18:33:39.170Z,3.05
2023-07-24T18:36:08.680Z,3.42
2023-07-24T18:38:36.867Z,3.67
2023-07-24T18:41:03.546Z,2.58
2023-07-24T18:43:30.107Z,3.20
2023-07-24T18:45:58.327Z,2.83
2023-07-24T18:48:28.192Z,3.13
2023-07-24T18:50:54.747Z,3.90
2023-07-24T18:53:21.612Z,4.13
2023-07-24T18:55:48.359Z,4.82
2023-07-24T18:58:14.933Z,4.20
2023-07-24T19:00:41.483Z,4.68
2023-07-24T19:03:08.166Z,4.35
2023-07-24T19:05:35.237Z,4.65
2023-07-24T19:08:01.956Z,4.53
2023-07-24T19:10:28.544Z,4.68
2023-07-24T19:12:55.205Z,4.00
2023-07-24T19:15:21.895Z,4.82
2023-07-24T19:17:48.957Z,4.93
2023-07-24T19:20:16.190Z,5.15
2023-07-24T19:22:42.826Z,4.40
2023-07-24T19:25:09.689Z,5.22
2023-07-24T19:27:36.446Z,4.15
2023-07-24T19:30:06.973Z,4.15
2023-07-24T19:32:35.331Z,4.60
2023-07-24T19:37:30.642Z,4.18
2023-07-24T19:39:57.324Z,4.68
2023-07-24T19:42:23.946Z,4.75
2023-07-24T19:44:50.510Z,5.18
2023-07-24T19:47:17.139Z,6.03
2023-07-24T19:49:44.196Z,6.18
2023-07-24T19:52:10.794Z,5.65
2023-07-24T19:54:37.444Z,5.70
2023-07-24T19:57:04.292Z,4.35
2023-07-24T19:59:30.892Z,4.50
2023-07-24T20:01:57.659Z,4.47
2023-07-24T20:04:24.485Z,5.40
2023-07-24T20:06:51.088Z,5.68
2023-07-24T20:09:17.755Z,5.85
2023-07-24T20:11:46.704Z,6.07
2023-07-24T20:16:41.183Z,6.47
2023-07-24T20:19:07.832Z,5.70
2023-07-24T20:21:34.393Z,5.28
2023-07-24T20:24:13.944Z,5.30
2023-07-24T20:26:40.892Z,5.75
2023-07-24T20:29:07.574Z,4.80
2023-07-24T20:31:34.737Z,5.20
2023-07-24T20:34:01.649Z,5.25
2023-07-24T20:36:28.281Z,8.50
2023-07-24T20:38:54.884Z,6.95
2023-07-24T20:41:21.526Z,6.30
2023-07-24T20:43:48.065Z,7.63
2023-07-24T20:46:16.522Z,6.85
2023-07-24T20:48:43.970Z,6.45
2023-07-24T20:51:24.487Z,6.32
2023-07-24T20:53:52.393Z,6.40
2023-07-24T20:56:23.741Z,5.75
2023-07-24T20:58:50.368Z,6.45
2023-07-24T21:01:17.005Z,5.97
2023-07-24T21:03:43.645Z,6.55
2023-07-24T21:06:10.274Z,5.68
2023-07-24T21:08:36.913Z,6.22
2023-07-24T21:11:03.803Z,5.70
2023-07-24T21:13:30.546Z,5.57
2023-07-24T21:15:57.333Z,6.35
2023-07-24T21:18:24.288Z,5.55
2023-07-24T21:20:50.911Z,5.93
2023-07-24T21:23:17.445Z,5.80
2023-07-24T21:25:55.931Z,3.80
2023-07-24T21:28:23.209Z,4.00
2023-07-24T21:30:50.003Z,4.32
2023-07-24T21:33:17.428Z,4.13
2023-07-24T21:35:44.109Z,3.92
2023-07-24T21:38:11.647Z,3.78
2023-07-24T21:40:39.769Z,3.35
2023-07-24T21:43:06.322Z,3.03
2023-07-24T21:45:32.898Z,2.72
2023-07-24T21:48:01.828Z,3.50
2023-07-24T21:50:28.533Z,2.65
2023-07-24T21:52:55.090Z,3.28
2023-07-24T21:55:21.867Z,2.53
2023-07-24T21:57:48.673Z,2.65
2023-07-24T22:00:15.617Z,2.13
2023-07-24T22:02:42.272Z,2.03
2023-07-24T22:05:09.044Z,1.80
2023-07-24T22:07:35.588Z,1.65
2023-07-24T22:10:02.212Z,2.00
2023-07-24T22:12:28.962Z,1.67
2023-07-24T22:14:55.579Z,1.65
2023-07-24T22:17:28.850Z,1.50
2023-07-24T22:19:58.318Z,1.38
2023-07-24T22:22:24.871Z,1.33
2023-07-24T22:24:51.568Z,1.83
2023-07-24T22:27:18.307Z,1.38
2023-07-24T22:29:45.246Z,2.10
2023-07-24T22:32:11.901Z,1.58
2023-07-24T22:34:38.460Z,1.60
2023-07-24T22:37:07.031Z,1.60
2023-07-24T22:39:34.464Z,1.67
2023-07-24T22:42:02.230Z,1.60
2023-07-24T22:44:29.417Z,1.83
2023-07-24T22:46:56.164Z,1.45
2023-07-24T22:49:23.344Z,1.67
2023-07-24T22:51:50.076Z,1.20
2023-07-24T22:54:16.625Z,1.48
2023-07-24T22:56:43.541Z,1.20
2023-07-24T22:59:22.352Z,1.20
2023-07-24T23:01:50.735Z,1.65
2023-07-24T23:04:17.565Z,1.30
2023-07-24T23:06:44.763Z,1.33
2023-07-24T23:09:11.503Z,1.17
2023-07-24T23:11:38.037Z,1.40
2023-07-24T23:14:04.647Z,1.50
2023-07-24T23:16:31.261Z,1.70
2023-07-24T23:18:57.829Z,1.20
2023-07-24T23:21:24.463Z,1.20
2023-07-24T23:23:51.008Z,1.48
2023-07-24T23:26:18.010Z,1.98
2023-07-24T23:28:44.810Z,1.63
2023-07-24T23:31:11.371Z,1.48
2023-07-24T23:33:38.806Z,1.48
2023-07-24T23:36:08.485Z,1.25
2023-07-24T23:38:36.609Z,1.90
2023-07-24T23:41:05.768Z,1.60
2023-07-24T23:43:33.120Z,1.23
2023-07-24T23:46:00.015Z,1.30
2023-07-24T23:48:26.745Z,1.17
2023-07-24T23:50:53.406Z,1.35
2023-07-24T23:53:20.493Z,1.30
2023-07-24T23:55:47.159Z,1.30
2023-07-24T23:58:13.731Z,1.50
